Terminal Aerodrome Forecast
Issued by NWS Raleigh/Durham, NC

Home | Current Version | Previous Version | Text Only | Print | Product List | Glossary On
Versions: 1 2 3 4 5 6 7 8 9 10 11 12 13
000
FTUS42 KRAH 250532
TAFFAY
TAF
KFAY 250532Z 2506/2606 02006KT P6SM BKN250
     FM251500 05010G16KT P6SM SCT025 BKN250
      TEMPO 2515/2518 BKN025
     FM251800 05011G17KT P6SM BKN030
     FM252300 05010KT P6SM SCT035 BKN250=

USA.gov is the U.S. government's official web portal to all federal, state and local government web resources and services.